Terminal Aerodrome Forecast
Issued by NWS

Home | Current Version | Previous Version | Text Only | Print | Product List | Glossary Off
Versions: 1 2 3 4 5 6 7 8 9 10 11 12 13 14

186
FTUS43 KBIS 271738
TAFMOT
TAF
KMOT 271738Z 2718/2818 07012G22KT P6SM BKN080 OVC200
     FM272000 06013G21KT P6SM SCT180 OVC220
     FM280300 04009KT P6SM OVC220
     FM280600 02007KT P6SM SCT170 OVC200=

USA.gov is the U.S. government's official web portal to all federal, state and local government web resources and services.